createdAt,value
2022-08-17T00:00:54.122Z,44.88
2022-08-17T00:01:54.195Z,40.64
2022-08-17T00:02:54.113Z,36.88
2022-08-17T00:03:54.105Z,41.43
2022-08-17T00:04:54.114Z,37.33
2022-08-17T00:05:54.087Z,56.89
2022-08-17T00:06:54.109Z,49.43
2022-08-17T00:07:54.070Z,41.19
2022-08-17T00:08:54.060Z,38.82
2022-08-17T00:09:54.053Z,48.82
2022-08-17T00:10:54.045Z,42.01
2022-08-17T00:12:41.774Z,38.86
2022-08-17T00:12:55.339Z,39.33
2022-08-17T00:13:55.910Z,44.39
2022-08-17T00:14:54.015Z,34.30
2022-08-17T00:15:54.023Z,34.10
2022-08-17T00:16:56.367Z,39.01
2022-08-17T00:17:53.987Z,43.67
2022-08-17T00:19:07.119Z,44.11
2022-08-17T00:19:54.975Z,35.58
2022-08-17T00:20:53.967Z,40.06
2022-08-17T00:22:10.643Z,43.23
2022-08-17T00:22:54.953Z,45.71
2022-08-17T00:23:53.973Z,50.39
2022-08-17T00:24:53.938Z,38.46
2022-08-17T00:25:53.953Z,42.74
2022-08-17T00:26:53.946Z,44.56
2022-08-17T00:27:53.918Z,52.72
2022-08-17T00:28:53.904Z,42.25
2022-08-17T00:29:53.892Z,36.16
2022-08-17T00:30:53.906Z,39.02
2022-08-17T00:31:53.905Z,38.36
2022-08-17T00:33:14.005Z,43.26
2022-08-17T00:33:54.860Z,34.63
2022-08-17T00:34:53.855Z,38.83
2022-08-17T00:35:53.846Z,56.52
2022-08-17T00:36:53.865Z,44.00
2022-08-17T00:37:53.831Z,45.28
2022-08-17T00:38:53.822Z,53.65
2022-08-17T00:39:53.842Z,45.92
2022-08-17T00:40:55.923Z,37.76
2022-08-17T00:41:54.826Z,41.19
2022-08-17T00:42:53.791Z,39.38
2022-08-17T00:43:53.787Z,42.31
2022-08-17T00:44:53.785Z,33.44
2022-08-17T00:45:53.765Z,32.53
2022-08-17T00:46:53.786Z,37.95
2022-08-17T00:47:53.752Z,42.81
2022-08-17T00:48:53.747Z,45.98
2022-08-17T00:49:53.731Z,48.21
2022-08-17T00:50:53.728Z,39.39
2022-08-17T00:51:53.747Z,40.93
2022-08-17T00:52:53.707Z,51.20
2022-08-17T00:53:53.711Z,36.85
2022-08-17T00:54:53.699Z,45.58
2022-08-17T00:55:53.725Z,45.12
2022-08-17T00:56:53.714Z,39.44
2022-08-17T00:57:55.576Z,47.97
2022-08-17T00:58:54.717Z,37.83
2022-08-17T01:00:01.997Z,33.47
2022-08-17T01:00:54.772Z,44.27
2022-08-17T01:01:53.715Z,41.64
2022-08-17T01:02:53.863Z,56.20
2022-08-17T01:03:53.631Z,51.30
2022-08-17T01:04:53.633Z,41.33
2022-08-17T01:05:53.615Z,46.46
2022-08-17T01:06:53.643Z,44.54
2022-08-17T01:07:53.635Z,49.25
2022-08-17T01:08:57.656Z,42.35
2022-08-17T01:09:53.588Z,47.95
2022-08-17T01:11:00.381Z,41.18
2022-08-17T01:11:54.598Z,43.01
2022-08-17T01:12:53.565Z,36.03
2022-08-17T01:13:53.557Z,41.00
2022-08-17T01:14:53.538Z,38.90
2022-08-17T01:15:54.546Z,39.98
2022-08-17T01:16:53.552Z,49.75
2022-08-17T01:17:54.524Z,41.59
2022-08-17T01:18:53.516Z,48.64
2022-08-17T01:19:53.510Z,46.85
2022-08-17T01:20:53.510Z,44.99
2022-08-17T01:21:53.527Z,46.10
2022-08-17T01:22:53.492Z,36.05
2022-08-17T01:23:53.476Z,44.45
2022-08-17T01:24:53.471Z,41.88
2022-08-17T01:25:53.490Z,41.60
2022-08-17T01:26:53.485Z,34.15
2022-08-17T01:27:53.444Z,34.03
2022-08-17T01:28:54.491Z,34.60
2022-08-17T01:29:54.434Z,43.27
2022-08-17T01:30:57.420Z,39.35
2022-08-17T01:31:54.445Z,55.40
2022-08-17T01:32:53.413Z,43.27
2022-08-17T01:33:53.408Z,42.49
2022-08-17T01:34:53.389Z,37.23
2022-08-17T01:35:53.384Z,43.78
2022-08-17T01:36:53.398Z,42.19
2022-08-17T01:37:53.366Z,45.79
2022-08-17T01:38:53.357Z,55.36
2022-08-17T01:39:53.374Z,35.38
2022-08-17T01:40:57.652Z,34.27
2022-08-17T01:41:53.354Z,42.86
2022-08-17T01:43:26.211Z,43.19
2022-08-17T01:43:53.322Z,44.45
2022-08-17T01:44:53.306Z,42.91
2022-08-17T01:46:03.247Z,37.88
2022-08-17T01:46:54.318Z,38.11
2022-08-17T01:47:53.284Z,37.46
2022-08-17T01:48:53.303Z,48.35
2022-08-17T01:49:53.274Z,39.90
2022-08-17T01:50:53.261Z,41.32
2022-08-17T01:51:53.285Z,45.95
2022-08-17T01:52:53.245Z,43.27
2022-08-17T01:53:53.226Z,42.86
2022-08-17T01:54:54.235Z,39.50
2022-08-17T01:55:53.226Z,44.83
2022-08-17T01:56:53.247Z,37.10
2022-08-17T01:57:54.211Z,53.49
2022-08-17T01:58:53.237Z,37.64
2022-08-17T01:59:53.191Z,40.19
2022-08-17T02:01:00.532Z,44.47
2022-08-17T02:01:54.259Z,35.78
2022-08-17T02:02:53.175Z,40.41
2022-08-17T02:03:59.584Z,41.16
2022-08-17T02:04:54.161Z,57.36
2022-08-17T02:05:53.153Z,41.81
2022-08-17T02:06:54.611Z,44.91
2022-08-17T02:08:00.448Z,39.82
2022-08-17T02:09:01.639Z,41.65
2022-08-17T02:09:55.123Z,38.32
2022-08-17T02:10:53.133Z,47.33
2022-08-17T02:11:53.101Z,46.37
2022-08-17T02:12:53.271Z,54.77
2022-08-17T02:13:57.823Z,55.59
2022-08-17T02:14:54.075Z,41.42
2022-08-17T02:15:53.072Z,38.14
2022-08-17T02:16:53.079Z,39.87
2022-08-17T02:17:54.730Z,47.08
2022-08-17T02:18:53.058Z,38.03
2022-08-17T02:19:53.039Z,33.65
2022-08-17T02:20:53.033Z,51.88
2022-08-17T02:21:53.028Z,38.40
2022-08-17T02:22:53.058Z,38.57
2022-08-17T02:23:53.011Z,40.33
2022-08-17T02:24:59.568Z,52.23
2022-08-17T02:25:53.999Z,41.72
2022-08-17T02:26:52.997Z,45.03
2022-08-17T02:27:53.011Z,47.87
2022-08-17T02:28:52.978Z,43.93
2022-08-17T02:29:53.037Z,48.12
2022-08-17T02:31:01.434Z,49.83
2022-08-17T02:31:53.955Z,42.16
2022-08-17T02:32:52.969Z,54.78
2022-08-17T02:34:00.260Z,45.90
2022-08-17T02:34:53.933Z,47.67
2022-08-17T02:35:52.921Z,36.92
2022-08-17T02:36:52.919Z,43.12
2022-08-17T02:37:55.448Z,39.51
2022-08-17T02:38:52.949Z,45.09
2022-08-17T02:39:53.000Z,46.83
2022-08-17T02:40:52.880Z,46.86
2022-08-17T02:41:52.880Z,42.13
2022-08-17T02:42:52.894Z,40.44
2022-08-17T02:43:52.866Z,44.53
2022-08-17T02:44:52.856Z,41.14
2022-08-17T02:45:52.850Z,33.33
2022-08-17T02:46:52.835Z,39.25
2022-08-17T02:47:52.857Z,44.55
2022-08-17T02:48:52.829Z,37.95
2022-08-17T02:49:55.403Z,42.48
2022-08-17T02:50:52.812Z,41.03
2022-08-17T02:51:52.807Z,47.94
2022-08-17T02:53:01.536Z,45.95
2022-08-17T02:54:02.094Z,47.30
2022-08-17T02:54:53.786Z,47.93
2022-08-17T02:55:52.802Z,53.03
2022-08-17T02:56:52.783Z,43.89
2022-08-17T02:57:52.776Z,51.94
2022-08-17T02:58:52.745Z,45.52
2022-08-17T02:59:52.743Z,46.66
2022-08-17T03:00:52.734Z,45.80
2022-08-17T03:01:52.772Z,47.68
2022-08-17T03:02:52.849Z,42.16
2022-08-17T03:03:52.719Z,53.03
2022-08-17T03:04:52.696Z,55.78
2022-08-17T03:05:52.687Z,54.35
2022-08-17T03:06:52.680Z,51.75
2022-08-17T03:07:52.715Z,44.18
2022-08-17T03:08:52.663Z,51.36
2022-08-17T03:09:52.657Z,49.72
2022-08-17T03:10:52.660Z,51.73
2022-08-17T03:11:55.861Z,46.24
2022-08-17T03:12:52.679Z,43.61
2022-08-17T03:13:52.617Z,55.36
2022-08-17T03:14:52.613Z,52.27
2022-08-17T03:15:52.610Z,48.64
2022-08-17T03:16:52.599Z,48.84
2022-08-17T03:17:52.618Z,57.73
2022-08-17T03:18:52.608Z,50.65
2022-08-17T03:19:52.582Z,51.12
2022-08-17T03:20:52.571Z,53.27
2022-08-17T03:21:55.140Z,54.27
2022-08-17T03:22:53.248Z,50.88
2022-08-17T03:23:54.345Z,47.94
2022-08-17T03:24:52.557Z,53.63
2022-08-17T03:25:53.038Z,53.29
2022-08-17T03:26:52.544Z,54.76
2022-08-17T03:27:52.552Z,52.75
2022-08-17T03:28:52.532Z,53.82
2022-08-17T03:29:52.506Z,51.86
2022-08-17T03:30:52.499Z,59.04
2022-08-17T03:31:52.498Z,52.69
2022-08-17T03:32:52.828Z,57.10
2022-08-17T03:33:52.497Z,55.08
2022-08-17T03:34:52.468Z,55.64
2022-08-17T03:35:52.456Z,50.35
2022-08-17T03:36:52.453Z,53.33
2022-08-17T03:38:00.100Z,60.15
2022-08-17T03:38:53.457Z,50.88
2022-08-17T03:39:52.491Z,49.96
2022-08-17T03:40:56.673Z,51.75
2022-08-17T03:41:53.417Z,55.04
2022-08-17T03:42:52.426Z,55.98
2022-08-17T03:43:52.401Z,57.59
2022-08-17T03:44:52.382Z,44.52
2022-08-17T03:45:52.369Z,52.05
2022-08-17T03:46:52.365Z,56.00
2022-08-17T03:47:52.389Z,58.15
2022-08-17T03:48:52.352Z,51.70
2022-08-17T03:49:52.342Z,50.04
2022-08-17T03:50:52.332Z,46.52
2022-08-17T03:51:52.327Z,55.59
2022-08-17T03:52:52.357Z,51.57
2022-08-17T03:53:52.312Z,53.24
2022-08-17T03:54:52.307Z,53.39
2022-08-17T03:55:52.296Z,52.33
2022-08-17T03:56:52.290Z,59.60
2022-08-17T03:57:52.306Z,54.60
2022-08-17T03:58:52.269Z,49.43
2022-08-17T03:59:52.265Z,55.79
2022-08-17T04:00:52.256Z,51.37
2022-08-17T04:01:52.312Z,51.82
2022-08-17T04:02:52.333Z,47.13
2022-08-17T04:03:52.236Z,56.54
2022-08-17T04:04:52.363Z,53.45
2022-08-17T04:05:52.232Z,55.85
2022-08-17T04:06:52.207Z,50.77
2022-08-17T04:07:52.228Z,52.53
2022-08-17T04:08:52.195Z,57.27
2022-08-17T04:09:52.187Z,55.03
2022-08-17T04:10:52.176Z,48.92
2022-08-17T04:11:52.185Z,54.84
2022-08-17T04:12:52.502Z,52.49
2022-08-17T04:13:52.153Z,55.55
2022-08-17T04:14:54.726Z,50.80
2022-08-17T04:15:52.134Z,55.60
2022-08-17T04:16:52.129Z,62.06
2022-08-17T04:17:52.147Z,55.04
2022-08-17T04:18:52.113Z,52.67
2022-08-17T04:19:53.139Z,54.70
2022-08-17T04:20:52.096Z,58.09
2022-08-17T04:21:52.093Z,58.48
2022-08-17T04:22:52.169Z,53.92
2022-08-17T04:23:52.097Z,56.13
2022-08-17T04:24:52.072Z,55.38
2022-08-17T04:25:52.060Z,53.44
2022-08-17T04:26:54.426Z,54.42
2022-08-17T04:27:52.067Z,56.07
2022-08-17T04:28:52.048Z,57.53
2022-08-17T04:29:54.995Z,55.62
2022-08-17T04:30:52.021Z,60.54
2022-08-17T04:31:52.018Z,58.88
2022-08-17T04:33:10.933Z,64.19
2022-08-17T04:33:52.994Z,55.54
2022-08-17T04:34:51.995Z,49.18
2022-08-17T04:35:52.004Z,58.51
2022-08-17T04:36:51.980Z,60.92
2022-08-17T04:37:51.997Z,55.21
2022-08-17T04:38:51.963Z,61.22
2022-08-17T04:39:51.999Z,53.84
2022-08-17T04:40:51.944Z,57.20
2022-08-17T04:41:51.940Z,56.47
2022-08-17T04:42:52.129Z,59.58
2022-08-17T04:43:53.922Z,54.02
2022-08-17T04:44:51.943Z,53.89
2022-08-17T04:45:55.765Z,55.68
2022-08-17T04:46:51.941Z,58.66
2022-08-17T04:47:51.919Z,56.22
2022-08-17T04:48:51.893Z,54.49
2022-08-17T04:49:51.881Z,54.77
2022-08-17T04:50:51.871Z,55.68
2022-08-17T04:51:55.838Z,57.95
2022-08-17T04:52:52.880Z,59.27
2022-08-17T04:53:54.472Z,60.38
2022-08-17T04:54:51.838Z,56.45
2022-08-17T04:55:51.837Z,54.82
2022-08-17T04:56:51.828Z,56.00
2022-08-17T04:57:51.844Z,52.72
2022-08-17T04:58:51.814Z,55.14
2022-08-17T04:59:51.804Z,54.77
2022-08-17T05:00:51.800Z,58.97
2022-08-17T05:01:51.786Z,54.40
2022-08-17T05:02:52.271Z,56.46
2022-08-17T05:03:51.773Z,55.42
2022-08-17T05:04:51.757Z,55.14
2022-08-17T05:05:51.748Z,53.23
2022-08-17T05:06:51.749Z,52.83
2022-08-17T05:07:51.729Z,54.56
2022-08-17T05:08:51.772Z,54.88
2022-08-17T05:09:51.719Z,54.11
2022-08-17T05:10:51.709Z,55.22
2022-08-17T05:11:51.779Z,51.17
2022-08-17T05:12:51.848Z,53.41
2022-08-17T05:13:51.732Z,52.21
2022-08-17T05:14:51.677Z,56.02
2022-08-17T05:15:51.675Z,56.90
2022-08-17T05:16:51.672Z,53.77
2022-08-17T05:17:51.651Z,53.02
2022-08-17T05:18:51.675Z,55.39
2022-08-17T05:19:52.185Z,55.05
2022-08-17T05:20:52.708Z,51.53
2022-08-17T05:21:51.625Z,55.10
2022-08-17T05:22:51.795Z,54.86
2022-08-17T05:23:56.229Z,59.58
2022-08-17T05:24:53.743Z,52.65
2022-08-17T05:25:51.601Z,50.32
2022-08-17T05:26:51.608Z,52.75
2022-08-17T05:27:51.600Z,54.29
2022-08-17T05:28:51.598Z,52.96
2022-08-17T05:29:51.569Z,53.80
2022-08-17T05:30:51.561Z,54.79
2022-08-17T05:31:51.554Z,54.42
2022-08-17T05:32:51.706Z,53.47
2022-08-17T05:33:51.544Z,55.42
2022-08-17T05:34:51.530Z,57.71
2022-08-17T05:35:51.517Z,50.64
2022-08-17T05:36:51.551Z,56.68
2022-08-17T05:37:51.530Z,54.15
2022-08-17T05:38:51.513Z,56.60
2022-08-17T05:39:51.542Z,51.49
2022-08-17T05:40:51.488Z,54.56
2022-08-17T05:41:51.474Z,50.03
2022-08-17T05:42:51.616Z,55.61
2022-08-17T05:43:56.073Z,55.49
2022-08-17T05:44:53.460Z,55.34
2022-08-17T05:45:54.841Z,55.47
2022-08-17T05:46:51.465Z,58.03
2022-08-17T05:47:51.480Z,57.44
2022-08-17T05:48:51.429Z,55.47
2022-08-17T05:49:51.408Z,53.08
2022-08-17T05:50:51.405Z,54.87
2022-08-17T05:51:51.413Z,53.03
2022-08-17T05:52:51.570Z,54.79
2022-08-17T05:53:51.379Z,55.07
2022-08-17T05:54:51.377Z,52.86
2022-08-17T05:55:51.365Z,50.97
2022-08-17T05:56:51.361Z,60.98
2022-08-17T05:57:53.396Z,55.53
2022-08-17T05:58:51.356Z,52.59
2022-08-17T05:59:51.332Z,52.18
2022-08-17T06:00:51.433Z,55.96
2022-08-17T06:01:51.320Z,51.97
2022-08-17T06:02:51.554Z,51.93
2022-08-17T06:03:51.329Z,53.55
2022-08-17T06:04:51.293Z,55.63
2022-08-17T06:05:51.287Z,52.22
2022-08-17T06:06:51.296Z,54.53
2022-08-17T06:07:51.296Z,55.67
2022-08-17T06:08:51.575Z,53.23
2022-08-17T06:09:51.256Z,54.71
2022-08-17T06:10:51.255Z,57.16
2022-08-17T06:11:53.702Z,54.07
2022-08-17T06:12:51.502Z,58.08
2022-08-17T06:13:51.254Z,51.41
2022-08-17T06:14:51.220Z,54.69
2022-08-17T06:15:51.206Z,57.13
2022-08-17T06:16:51.223Z,52.21
2022-08-17T06:17:51.193Z,50.73
2022-08-17T06:18:51.221Z,52.27
2022-08-17T06:19:51.180Z,55.32
2022-08-17T06:20:51.175Z,53.52
2022-08-17T06:21:51.171Z,54.66
2022-08-17T06:22:51.386Z,56.25
2022-08-17T06:23:51.185Z,54.09
2022-08-17T06:24:51.145Z,52.65
2022-08-17T06:25:51.137Z,52.17
2022-08-17T06:26:51.125Z,57.62
2022-08-17T06:27:53.657Z,54.03
2022-08-17T06:28:51.155Z,54.87
2022-08-17T06:29:51.107Z,50.45
2022-08-17T06:30:59.560Z,50.40
2022-08-17T06:31:52.092Z,50.22
2022-08-17T06:32:51.350Z,53.31
2022-08-17T06:33:51.128Z,56.68
2022-08-17T06:34:51.071Z,52.98
2022-08-17T06:35:51.062Z,49.88
2022-08-17T06:36:51.047Z,51.51
2022-08-17T06:37:51.072Z,51.42
2022-08-17T06:38:51.064Z,52.49
2022-08-17T06:39:51.107Z,54.47
2022-08-17T06:40:51.019Z,52.59
2022-08-17T06:41:51.018Z,57.00
2022-08-17T06:43:02.886Z,54.93
2022-08-17T06:43:52.047Z,52.54
2022-08-17T06:44:51.593Z,58.30
2022-08-17T06:45:50.985Z,52.00
2022-08-17T06:46:50.978Z,54.02
2022-08-17T06:47:50.969Z,53.65
2022-08-17T06:48:50.985Z,50.78
2022-08-17T06:49:55.243Z,55.20
2022-08-17T06:50:51.945Z,55.11
2022-08-17T06:51:50.946Z,55.04
2022-08-17T06:52:50.931Z,53.38
2022-08-17T06:53:50.963Z,56.79
2022-08-17T06:54:50.917Z,50.26
2022-08-17T06:55:50.925Z,51.73
2022-08-17T06:56:52.700Z,56.14
2022-08-17T06:57:50.912Z,52.39
2022-08-17T06:58:50.916Z,53.41
2022-08-17T06:59:55.876Z,51.98
2022-08-17T07:00:55.387Z,53.82
2022-08-17T07:01:51.875Z,54.32
2022-08-17T07:02:52.631Z,53.56
2022-08-17T07:03:50.877Z,53.82
2022-08-17T07:04:50.839Z,60.22
2022-08-17T07:05:50.821Z,51.09
2022-08-17T07:06:51.822Z,51.14
2022-08-17T07:07:50.815Z,56.20
2022-08-17T07:08:50.840Z,56.11
2022-08-17T07:09:50.808Z,49.80
2022-08-17T07:10:50.794Z,52.66
2022-08-17T07:11:50.790Z,55.52
2022-08-17T07:12:51.025Z,51.30
2022-08-17T07:13:51.613Z,53.36
2022-08-17T07:14:50.762Z,60.09
2022-08-17T07:15:54.005Z,51.27
2022-08-17T07:16:52.758Z,53.04
2022-08-17T07:17:50.743Z,51.59
2022-08-17T07:18:50.761Z,54.43
2022-08-17T07:19:50.726Z,56.09
2022-08-17T07:20:50.717Z,53.71
2022-08-17T07:21:50.737Z,50.97
2022-08-17T07:22:59.260Z,56.38
2022-08-17T07:23:51.733Z,55.15
2022-08-17T07:24:50.684Z,49.91
2022-08-17T07:25:50.677Z,56.01
2022-08-17T07:26:50.683Z,52.23
2022-08-17T07:27:50.741Z,52.38
2022-08-17T07:28:50.685Z,59.08
2022-08-17T07:29:50.650Z,51.26
2022-08-17T07:30:50.640Z,55.80
2022-08-17T07:31:50.680Z,54.51
2022-08-17T07:32:50.627Z,49.33
2022-08-17T07:33:50.641Z,53.88
2022-08-17T07:34:50.639Z,55.18
2022-08-17T07:35:50.605Z,52.26
2022-08-17T07:36:50.597Z,54.57
2022-08-17T07:37:50.805Z,54.80
2022-08-17T07:38:50.580Z,53.34
2022-08-17T07:40:15.609Z,54.63
2022-08-17T07:40:51.565Z,55.40
2022-08-17T07:41:57.504Z,53.19
2022-08-17T07:43:23.307Z,54.13
2022-08-17T07:43:50.546Z,56.59
2022-08-17T07:44:50.549Z,55.29
2022-08-17T07:45:50.521Z,56.21
2022-08-17T07:46:50.517Z,52.41
2022-08-17T07:47:50.693Z,52.08
2022-08-17T07:48:51.267Z,51.40
2022-08-17T07:49:50.523Z,53.32
2022-08-17T07:50:50.707Z,53.32
2022-08-17T07:51:50.544Z,51.80
2022-08-17T07:52:52.493Z,55.16
2022-08-17T07:53:50.469Z,53.52
2022-08-17T07:54:50.478Z,53.25
2022-08-17T07:55:50.445Z,53.88
2022-08-17T07:56:50.436Z,52.76
2022-08-17T07:57:50.545Z,57.28
2022-08-17T07:58:50.424Z,54.24
2022-08-17T07:59:50.445Z,53.65
2022-08-17T08:00:50.415Z,50.63
2022-08-17T08:01:55.510Z,54.90
2022-08-17T08:02:51.394Z,53.94
2022-08-17T08:03:52.596Z,50.67
2022-08-17T08:05:00.546Z,48.80
2022-08-17T08:05:52.379Z,52.50
2022-08-17T08:06:50.365Z,54.86
2022-08-17T08:07:50.688Z,51.49
2022-08-17T08:08:50.359Z,53.02
2022-08-17T08:09:50.379Z,50.42
2022-08-17T08:10:50.340Z,54.72
2022-08-17T08:11:50.334Z,51.95
2022-08-17T08:12:53.706Z,51.73
2022-08-17T08:13:50.313Z,52.42
2022-08-17T08:14:50.341Z,51.80
2022-08-17T08:15:53.682Z,54.98
2022-08-17T08:16:50.293Z,55.20
2022-08-17T08:17:50.505Z,47.70
2022-08-17T08:18:56.085Z,55.49
2022-08-17T08:19:51.299Z,50.73
2022-08-17T08:20:53.420Z,52.56
2022-08-17T08:21:50.267Z,53.49
2022-08-17T08:22:50.253Z,54.66
2022-08-17T08:23:50.243Z,52.18
2022-08-17T08:24:50.275Z,53.64
2022-08-17T08:25:53.483Z,52.37
2022-08-17T08:26:51.223Z,48.46
2022-08-17T08:27:50.521Z,51.01
2022-08-17T08:28:50.199Z,53.07
2022-08-17T08:29:50.220Z,51.57
2022-08-17T08:30:50.193Z,43.16
2022-08-17T08:31:50.183Z,46.37
2022-08-17T08:32:50.518Z,43.97
2022-08-17T08:33:50.167Z,53.13
2022-08-17T08:35:01.965Z,53.86
2022-08-17T08:35:51.179Z,53.38
2022-08-17T08:37:02.030Z,57.30
2022-08-17T08:37:51.174Z,54.27
2022-08-17T08:38:50.136Z,55.83
2022-08-17T08:39:50.205Z,51.77
2022-08-17T08:40:50.137Z,56.79
2022-08-17T08:41:50.296Z,53.18
2022-08-17T08:42:50.179Z,54.53
2022-08-17T08:43:53.056Z,50.84
2022-08-17T08:45:00.030Z,51.58
2022-08-17T08:45:51.100Z,52.57
2022-08-17T08:46:50.081Z,50.02
2022-08-17T08:47:50.213Z,52.62
2022-08-17T08:48:56.014Z,56.21
2022-08-17T08:50:06.117Z,56.83
2022-08-17T08:50:52.055Z,49.76
2022-08-17T08:51:50.639Z,51.85
2022-08-17T08:52:50.023Z,56.99
2022-08-17T08:53:50.014Z,53.61
2022-08-17T08:54:50.019Z,54.57
2022-08-17T08:55:50.027Z,51.72
2022-08-17T08:57:21.889Z,51.99
2022-08-17T08:57:52.094Z,53.60
2022-08-17T08:58:49.988Z,52.48
2022-08-17T08:59:57.881Z,51.06
2022-08-17T09:00:50.989Z,52.38
2022-08-17T09:01:49.987Z,52.56
2022-08-17T09:02:49.948Z,51.78
2022-08-17T09:03:53.070Z,51.48
2022-08-17T09:05:13.537Z,52.62
2022-08-17T09:05:51.947Z,50.17
2022-08-17T09:06:49.908Z,54.30
2022-08-17T09:07:50.078Z,51.63
2022-08-17T09:08:49.906Z,50.57
2022-08-17T09:09:49.897Z,50.33
2022-08-17T09:10:49.907Z,49.99
2022-08-17T09:12:02.081Z,48.73
2022-08-17T09:12:50.865Z,51.71
2022-08-17T09:13:54.664Z,53.40
2022-08-17T09:14:50.848Z,49.00
2022-08-17T09:15:49.865Z,51.04
2022-08-17T09:16:49.842Z,49.33
2022-08-17T09:17:55.733Z,53.55
2022-08-17T09:19:03.411Z,48.48
2022-08-17T09:19:50.822Z,55.88
2022-08-17T09:20:50.446Z,51.97
2022-08-17T09:21:50.797Z,51.31
2022-08-17T09:22:49.797Z,55.67
2022-08-17T09:23:49.783Z,49.81
2022-08-17T09:24:49.776Z,47.53
2022-08-17T09:25:49.817Z,51.34
2022-08-17T09:26:49.770Z,51.85
2022-08-17T09:27:50.011Z,50.14
2022-08-17T09:28:49.750Z,52.04
2022-08-17T09:29:49.785Z,50.47
2022-08-17T09:30:49.737Z,50.59
2022-08-17T09:31:49.759Z,52.04
2022-08-17T09:32:49.725Z,49.42
2022-08-17T09:33:49.710Z,50.11
2022-08-17T09:34:49.730Z,50.30
2022-08-17T09:35:49.710Z,53.08
2022-08-17T09:36:49.690Z,52.43
2022-08-17T09:37:49.895Z,52.82
2022-08-17T09:38:49.673Z,51.57
2022-08-17T09:39:49.766Z,46.87
2022-08-17T09:40:49.677Z,47.10
2022-08-17T09:41:49.656Z,54.15
2022-08-17T09:42:49.654Z,53.66
2022-08-17T09:43:49.649Z,47.45
2022-08-17T09:44:49.650Z,56.33
2022-08-17T09:45:49.661Z,52.13
2022-08-17T09:46:49.621Z,52.87
2022-08-17T09:47:49.858Z,49.05
2022-08-17T09:48:49.596Z,54.75
2022-08-17T09:49:49.606Z,52.98
2022-08-17T09:51:05.454Z,52.13
2022-08-17T09:51:50.589Z,50.85
2022-08-17T09:52:49.569Z,53.91
2022-08-17T09:53:49.844Z,48.00
2022-08-17T09:54:50.566Z,49.07
2022-08-17T09:55:49.589Z,47.93
2022-08-17T09:57:00.858Z,53.50
2022-08-17T09:57:51.730Z,53.10
2022-08-17T09:58:49.535Z,49.45
2022-08-17T09:59:49.521Z,56.53
2022-08-17T10:00:49.579Z,49.93
2022-08-17T10:01:49.513Z,53.73
2022-08-17T10:02:49.502Z,52.41
2022-08-17T10:03:49.509Z,51.73
2022-08-17T10:04:49.495Z,50.94
2022-08-17T10:05:49.498Z,53.20
2022-08-17T10:06:50.475Z,48.30
2022-08-17T10:07:49.605Z,52.18
2022-08-17T10:08:49.462Z,51.36
2022-08-17T10:09:49.453Z,49.44
2022-08-17T10:10:52.399Z,50.07
2022-08-17T10:11:50.622Z,54.09
2022-08-17T10:12:49.428Z,45.87
2022-08-17T10:13:52.880Z,49.25
2022-08-17T10:14:53.533Z,52.02
2022-08-17T10:15:50.431Z,53.42
2022-08-17T10:16:49.396Z,49.64
2022-08-17T10:17:49.482Z,51.66
2022-08-17T10:18:49.377Z,46.56
2022-08-17T10:19:49.394Z,54.19
2022-08-17T10:20:49.389Z,54.39
2022-08-17T10:21:49.356Z,50.69
2022-08-17T10:22:54.766Z,53.80
2022-08-17T10:23:50.408Z,47.75
2022-08-17T10:25:23.088Z,52.91
2022-08-17T10:25:55.009Z,47.02
2022-08-17T10:26:56.808Z,51.51
2022-08-17T10:27:50.606Z,51.43
2022-08-17T10:28:49.308Z,55.58
2022-08-17T10:29:49.927Z,49.34
2022-08-17T10:30:49.319Z,46.47
2022-08-17T10:31:49.299Z,47.42
2022-08-17T10:32:49.279Z,52.68
2022-08-17T10:33:49.283Z,51.80
2022-08-17T10:34:49.265Z,50.60
2022-08-17T10:35:49.308Z,50.53
2022-08-17T10:36:49.258Z,50.96
2022-08-17T10:37:49.340Z,48.70
2022-08-17T10:38:49.232Z,47.54
2022-08-17T10:39:51.982Z,52.59
2022-08-17T10:40:49.349Z,52.43
2022-08-17T10:41:49.218Z,53.89
2022-08-17T10:42:49.217Z,50.62
2022-08-17T10:44:37.346Z,50.25
2022-08-17T10:44:50.186Z,52.59
2022-08-17T10:45:49.213Z,47.46
2022-08-17T10:46:50.171Z,47.03
2022-08-17T10:47:55.360Z,50.76
2022-08-17T10:48:51.167Z,50.67
2022-08-17T10:49:49.233Z,49.95
2022-08-17T10:50:49.174Z,51.63
2022-08-17T10:51:49.339Z,51.35
2022-08-17T10:52:49.131Z,52.84
2022-08-17T10:53:49.116Z,52.39
2022-08-17T10:54:49.118Z,49.92
2022-08-17T10:55:49.100Z,52.02
2022-08-17T10:56:49.134Z,49.58
2022-08-17T10:57:49.225Z,50.08
2022-08-17T10:58:49.147Z,51.29
2022-08-17T10:59:49.079Z,51.39
2022-08-17T11:00:49.130Z,51.28
2022-08-17T11:01:49.220Z,54.86
2022-08-17T11:02:49.254Z,52.08
2022-08-17T11:03:49.039Z,47.65
2022-08-17T11:04:49.041Z,53.64
2022-08-17T11:05:49.036Z,49.94
2022-08-17T11:06:49.048Z,52.36
2022-08-17T11:07:49.025Z,49.72
2022-08-17T11:08:48.997Z,49.87
2022-08-17T11:09:48.991Z,51.21
2022-08-17T11:10:52.091Z,50.61
2022-08-17T11:11:50.080Z,48.90
2022-08-17T11:12:49.026Z,50.51
2022-08-17T11:13:48.974Z,53.61
2022-08-17T11:14:48.961Z,51.75
2022-08-17T11:15:48.949Z,52.76
2022-08-17T11:16:48.970Z,47.95
2022-08-17T11:17:48.956Z,51.14
2022-08-17T11:18:48.930Z,51.41
2022-08-17T11:19:48.926Z,53.27
2022-08-17T11:20:48.924Z,49.39
2022-08-17T11:21:49.044Z,46.82
2022-08-17T11:22:48.951Z,51.23
2022-08-17T11:23:48.896Z,55.60
2022-08-17T11:24:48.891Z,52.10
2022-08-17T11:25:48.876Z,47.53
2022-08-17T11:26:48.906Z,49.59
2022-08-17T11:27:48.862Z,49.20
2022-08-17T11:28:48.876Z,50.63
2022-08-17T11:29:52.625Z,49.28
2022-08-17T11:30:50.848Z,55.18
2022-08-17T11:31:48.863Z,52.82
2022-08-17T11:32:54.737Z,52.28
2022-08-17T11:33:49.822Z,52.60
2022-08-17T11:34:48.815Z,50.78
2022-08-17T11:35:48.819Z,52.26
2022-08-17T11:36:48.823Z,53.34
2022-08-17T11:37:48.793Z,52.13
2022-08-17T11:38:48.787Z,51.13
2022-08-17T11:39:48.868Z,51.05
2022-08-17T11:40:48.768Z,49.39
2022-08-17T11:41:48.801Z,53.57
2022-08-17T11:42:48.864Z,46.43
2022-08-17T11:43:48.749Z,49.23
2022-08-17T11:44:48.731Z,53.79
2022-08-17T11:45:48.727Z,50.34
2022-08-17T11:46:51.806Z,49.45
2022-08-17T11:48:09.095Z,53.07
2022-08-17T11:48:50.709Z,54.72
2022-08-17T11:49:48.711Z,47.40
2022-08-17T11:50:48.703Z,51.48
2022-08-17T11:51:48.715Z,51.36
2022-08-17T11:52:48.685Z,47.88
2022-08-17T11:53:48.698Z,50.63
2022-08-17T11:54:48.669Z,50.15
2022-08-17T11:55:48.724Z,49.35
2022-08-17T11:56:48.718Z,54.52
2022-08-17T11:57:48.702Z,50.98
2022-08-17T11:58:49.647Z,49.50
2022-08-17T11:59:48.643Z,58.39
2022-08-17T12:00:48.664Z,48.28
2022-08-17T12:01:48.674Z,56.77
2022-08-17T12:02:48.965Z,51.43
2022-08-17T12:03:55.204Z,51.04
2022-08-17T12:04:49.639Z,49.66
2022-08-17T12:05:48.589Z,48.34
2022-08-17T12:06:48.608Z,50.19
2022-08-17T12:07:48.746Z,55.19
2022-08-17T12:08:48.561Z,49.57
2022-08-17T12:09:49.557Z,53.48
2022-08-17T12:10:48.556Z,51.04
2022-08-17T12:11:55.687Z,53.29
2022-08-17T12:12:49.543Z,48.37
2022-08-17T12:13:48.524Z,52.60
2022-08-17T12:15:50.530Z,51.55
2022-08-17T12:16:48.531Z,50.40
2022-08-17T12:17:48.502Z,52.87
2022-08-17T12:18:48.503Z,48.82
2022-08-17T12:19:48.491Z,51.04
2022-08-17T12:20:50.957Z,51.30
2022-08-17T12:21:48.489Z,52.67
2022-08-17T12:22:48.504Z,54.58
2022-08-17T12:23:48.453Z,49.08
2022-08-17T12:24:48.438Z,51.60
2022-08-17T12:25:48.450Z,51.92
2022-08-17T12:26:48.458Z,51.31
2022-08-17T12:28:06.030Z,47.11
2022-08-17T12:28:49.408Z,53.75
2022-08-17T12:29:48.418Z,52.28
2022-08-17T12:30:48.400Z,49.79
2022-08-17T12:31:48.431Z,51.17
2022-08-17T12:32:48.384Z,55.73
2022-08-17T12:33:48.382Z,50.05
2022-08-17T12:34:48.367Z,46.15
2022-08-17T12:35:48.366Z,51.59
2022-08-17T12:36:48.384Z,48.12
2022-08-17T12:37:48.349Z,48.37
2022-08-17T12:38:48.339Z,52.35
2022-08-17T12:39:48.356Z,51.79
2022-08-17T12:40:48.326Z,48.34
2022-08-17T12:41:48.375Z,54.01
2022-08-17T12:42:48.308Z,50.33
2022-08-17T12:43:48.312Z,53.02
2022-08-17T12:44:50.302Z,53.73
2022-08-17T12:45:48.287Z,52.80
2022-08-17T12:46:48.274Z,51.51
2022-08-17T12:47:48.299Z,54.09
2022-08-17T12:48:59.115Z,49.85
2022-08-17T12:49:49.252Z,52.36
2022-08-17T12:50:48.249Z,53.76
2022-08-17T12:51:48.237Z,51.37
2022-08-17T12:52:48.262Z,52.89
2022-08-17T12:53:48.222Z,54.13